Time;durP1;ratioP1;P1;durP2;ratioP2;P2;SDS_P1;SDS_P2;PMS_P1;PMS_P2;Temp;Humidity;BMP_temperature;BMP_pressure;BME280_temperature;BME280_humidity;BME280_pressure;Samples;Min_cycle;Max_cycle;Signal;HPM_P1;HPM_P2
2022/04/19 00:01:32;;;;;;;17.98;8.50;;;9.60;67.00;;;;;;10289017;28;20174;-84
2022/04/19 00:06:33;;;;;;;14.60;8.80;;;9.70;67.40;;;;;;10285122;28;20047;-84
2022/04/19 00:11:33;;;;;;;16.58;9.25;;;9.40;67.60;;;;;;10323451;28;20041;-84
2022/04/19 00:16:36;;;;;;;15.70;7.97;;;9.30;67.90;;;;;;10324555;28;20310;-84
2022/04/19 00:21:37;;;;;;;12.70;8.35;;;9.20;68.30;;;;;;10302296;28;20409;-84
2022/04/19 00:26:37;;;;;;;14.77;9.07;;;10.00;69.00;;;;;;10250764;28;20050;-83
2022/04/19 00:31:38;;;;;;;13.23;8.20;;;9.10;68.80;;;;;;10279270;28;20051;-84
2022/04/19 00:36:39;;;;;;;16.20;8.77;;;9.00;69.00;;;;;;10292036;28;20034;-84
2022/04/19 00:41:39;;;;;;;13.25;8.98;;;8.90;69.30;;;;;;10284876;28;20053;-84
2022/04/19 00:46:40;;;;;;;14.65;9.10;;;8.80;69.60;;;;;;10283670;28;20050;-84
2022/04/19 00:51:41;;;;;;;12.77;8.30;;;8.80;69.80;;;;;;10289047;28;20089;-84
2022/04/19 00:56:41;;;;;;;14.93;8.30;;;8.70;70.10;;;;;;10294364;28;20043;-84
2022/04/19 01:01:42;;;;;;;14.55;8.25;;;8.60;70.40;;;;;;10285317;28;20432;-84
2022/04/19 01:06:43;;;;;;;14.82;8.77;;;8.50;70.70;;;;;;10264944;28;20078;-84
2022/04/19 01:17:06;;;;;;;17.58;8.70;;;8.30;71.20;;;;;;10322206;28;20062;-83
2022/04/19 01:22:12;;;;;;;16.80;9.07;;;8.30;71.60;;;;;;10294449;28;20093;-84
2022/04/19 01:27:15;;;;;;;12.57;8.57;;;8.20;72.60;;;;;;10302395;28;20603;-84
2022/04/19 01:32:20;;;;;;;16.25;9.40;;;8.10;72.20;;;;;;10310608;28;20078;-84
2022/04/19 01:37:21;;;;;;;16.55;9.05;;;8.00;72.60;;;;;;10300728;28;20070;-84
2022/04/19 01:42:22;;;;;;;17.23;9.07;;;8.10;73.00;;;;;;10285083;28;20047;-84
2022/04/19 01:47:22;;;;;;;15.35;8.57;;;7.90;73.30;;;;;;10252185;28;20039;-84
2022/04/19 01:52:23;;;;;;;15.05;8.95;;;7.90;73.50;;;;;;10247274;28;20444;-83
2022/04/19 01:57:25;;;;;;;14.27;8.77;;;8.10;73.90;;;;;;10261879;28;20505;-84
2022/04/19 02:02:26;;;;;;;14.68;8.80;;;8.30;74.60;;;;;;10296240;28;20133;-84
2022/04/19 02:07:26;;;;;;;15.68;8.38;;;7.90;74.80;;;;;;10320145;28;20540;-84
2022/04/19 02:12:28;;;;;;;16.42;8.63;;;7.60;75.10;;;;;;10319078;28;20034;-84
2022/04/19 02:17:29;;;;;;;17.05;9.23;;;7.50;75.30;;;;;;10302566;28;20043;-84
2022/04/19 02:22:30;;;;;;;15.05;8.63;;;7.50;75.70;;;;;;10307074;28;20134;-83
2022/04/19 02:27:31;;;;;;;16.00;9.25;;;8.20;76.10;;;;;;10279649;28;20468;-84
2022/04/19 02:32:33;;;;;;;18.33;8.80;;;7.50;76.10;;;;;;10267048;28;20026;-84
2022/04/19 02:37:34;;;;;;;19.00;10.00;;;7.40;76.30;;;;;;10302787;28;20511;-84
2022/04/19 02:42:36;;;;;;;19.15;10.48;;;7.40;76.50;;;;;;10291463;28;20043;-84
2022/04/19 02:47:37;;;;;;;18.65;9.95;;;7.90;77.10;;;;;;10266713;28;20058;-84
2022/04/19 02:52:38;;;;;;;20.63;9.90;;;7.30;77.10;;;;;;10286380;28;20047;-84
2022/04/19 02:57:39;;;;;;;16.23;9.60;;;7.70;77.40;;;;;;10311016;28;20038;-84
2022/04/19 03:02:39;;;;;;;18.45;8.70;;;7.20;77.40;;;;;;10291479;28;20039;-84
2022/04/19 03:07:40;;;;;;;16.67;9.70;;;7.10;77.60;;;;;;10269028;28;20042;-84
2022/04/19 03:12:41;;;;;;;16.65;9.45;;;7.10;78.00;;;;;;10278682;28;20035;-84
2022/04/19 03:17:43;;;;;;;18.90;9.85;;;7.10;78.30;;;;;;10257730;28;20043;-84
2022/04/19 03:28:03;;;;;;;15.63;8.63;;;7.00;78.60;;;;;;10263529;28;20061;-83
2022/04/19 03:33:04;;;;;;;14.35;8.43;;;6.90;78.70;;;;;;10258675;28;20043;-84
2022/04/19 03:38:05;;;;;;;17.48;8.32;;;6.90;78.90;;;;;;10295786;28;20135;-84
2022/04/19 03:43:06;;;;;;;16.67;8.88;;;7.50;79.40;;;;;;10282580;28;20054;-84
2022/04/19 03:48:10;;;;;;;18.42;9.02;;;7.30;79.70;;;;;;10273900;28;20039;-84
2022/04/19 03:53:11;;;;;;;14.35;8.52;;;7.10;80.00;;;;;;10284966;28;20055;-84
2022/04/19 03:58:12;;;;;;;20.50;10.18;;;6.80;80.40;;;;;;10280592;28;20476;-84
2022/04/19 04:03:13;;;;;;;17.17;9.32;;;7.70;81.30;;;;;;10256307;28;20054;-84
2022/04/19 04:08:14;;;;;;;15.88;8.88;;;6.60;81.20;;;;;;10279855;28;20062;-84
2022/04/19 04:13:17;;;;;;;16.48;8.13;;;6.90;81.80;;;;;;10306872;28;20129;-84
2022/04/19 04:18:20;;;;;;;14.77;8.85;;;6.50;82.20;;;;;;10299503;28;20057;-84
2022/04/19 04:23:21;;;;;;;15.93;8.80;;;6.80;82.40;;;;;;10286697;28;20047;-84
2022/04/19 04:28:22;;;;;;;14.95;8.68;;;6.90;82.60;;;;;;10266575;28;20039;-84
2022/04/19 04:33:22;;;;;;;15.52;8.32;;;6.40;82.70;;;;;;10270774;28;20050;-84
2022/04/19 04:38:23;;;;;;;20.58;8.82;;;6.40;83.00;;;;;;10290354;28;20069;-84
2022/04/19 04:43:24;;;;;;;18.77;9.15;;;7.00;83.80;;;;;;10288467;28;20112;-84
2022/04/19 04:53:44;;;;;;;15.13;8.60;;;6.30;84.10;;;;;;10321518;28;20042;-84
2022/04/19 04:58:44;;;;;;;14.30;8.43;;;6.30;84.40;;;;;;10300502;28;20042;-83
2022/04/19 05:03:45;;;;;;;15.98;8.82;;;6.20;84.60;;;;;;10282638;28;20133;-84
2022/04/19 05:08:46;;;;;;;15.75;8.50;;;7.30;85.40;;;;;;10294914;28;20525;-84
2022/04/19 05:13:46;;;;;;;15.18;8.40;;;6.30;85.20;;;;;;10283519;28;20504;-84
2022/04/19 05:18:47;;;;;;;18.88;9.68;;;6.40;85.50;;;;;;10263192;28;20094;-84
2022/04/19 05:23:48;;;;;;;19.40;10.02;;;6.40;85.70;;;;;;10266675;28;20437;-83
2022/04/19 05:28:48;;;;;;;21.75;9.82;;;7.60;86.50;;;;;;10264391;28;20078;-84
2022/04/19 05:33:49;;;;;;;16.80;9.02;;;6.50;86.20;;;;;;10278462;28;20113;-84
2022/04/19 05:38:52;;;;;;;17.42;9.20;;;7.40;86.90;;;;;;10280049;28;20047;-84
2022/04/19 05:43:53;;;;;;;17.27;9.07;;;7.00;86.80;;;;;;10285565;28;20501;-84
2022/04/19 05:48:54;;;;;;;19.85;10.45;;;6.70;86.90;;;;;;10307580;28;20100;-84
2022/04/19 05:53:55;;;;;;;20.08;9.38;;;6.90;86.90;;;;;;10265785;28;20418;-84
2022/04/19 05:59:03;;;;;;;20.60;10.75;;;7.00;86.70;;;;;;10304199;28;20090;-84
2022/04/19 06:09:23;;;;;;;;;;;7.20;86.00;;;;;;10280116;28;20035;-85
2022/04/19 06:14:24;;;;;;;26.13;10.80;;;8.10;89.30;;;;;;10290313;28;19937;-85
2022/04/19 06:19:25;;;;;;;20.30;10.20;;;8.00;85.50;;;;;;10289738;28;20157;-84
2022/04/19 06:24:26;;;;;;;22.40;10.63;;;7.80;85.00;;;;;;10300979;28;20043;-84
2022/04/19 06:29:26;;;;;;;21.92;10.85;;;8.00;84.90;;;;;;10245884;28;20433;-85
2022/04/19 06:34:29;;;;;;;18.30;10.02;;;8.30;84.70;;;;;;10277673;28;20030;-84
2022/04/19 06:39:30;;;;;;;19.42;10.20;;;8.00;84.20;;;;;;10263015;28;20519;-84
2022/04/19 06:44:52;;;;;;;16.52;10.00;;;8.90;84.50;;;;;;10281744;28;20042;-84
2022/04/19 06:49:57;;;;;;;16.80;9.10;;;9.30;84.30;;;;;;10277268;28;20035;-85
2022/04/19 06:54:58;;;;;;;21.55;10.80;;;9.60;83.80;;;;;;10249109;28;20042;-84
2022/04/19 07:00:04;;;;;;;18.92;9.27;;;10.00;83.30;;;;;;10290467;28;20043;-84
2022/04/19 07:05:08;;;;;;;24.08;10.20;;;10.30;83.00;;;;;;10261372;28;20047;-85
2022/04/19 07:10:12;;;;;;;18.60;9.32;;;10.50;82.60;;;;;;10260203;28;20094;-85
2022/04/19 07:15:14;;;;;;;17.50;9.43;;;10.80;82.40;;;;;;10314362;28;20042;-85
2022/04/19 07:30:54;;;;;;;15.15;7.68;;;11.50;82.20;;;;;;10276041;28;20049;-85
2022/04/19 07:35:54;;;;;;;12.60;6.97;;;11.80;81.70;;;;;;10270336;28;20038;-84
2022/04/19 07:40:58;;;;;;;12.70;6.57;;;12.10;81.40;;;;;;10300851;28;20038;-85
2022/04/19 07:46:02;;;;;;;11.55;6.15;;;12.30;81.10;;;;;;10283870;28;20093;-85
2022/04/19 07:51:06;;;;;;;12.95;5.97;;;12.50;80.80;;;;;;10260671;28;20039;-85
2022/04/19 07:56:07;;;;;;;12.25;5.72;;;12.70;80.10;;;;;;10272063;28;20065;-85
2022/04/19 08:01:07;;;;;;;14.60;6.28;;;13.00;79.50;;;;;;10282384;28;20039;-85
2022/04/19 08:06:08;;;;;;;13.32;5.93;;;13.20;78.80;;;;;;10273439;28;20516;-85
2022/04/19 08:11:09;;;;;;;13.18;5.85;;;13.50;78.20;;;;;;10285891;28;20054;-86
2022/04/19 08:16:10;;;;;;;10.52;5.80;;;13.80;77.60;;;;;;10313406;28;20034;-85
2022/04/19 08:21:12;;;;;;;11.05;6.63;;;14.00;77.30;;;;;;10283387;28;20042;-86
2022/04/19 08:26:13;;;;;;;12.60;5.18;;;14.20;76.50;;;;;;10266436;28;20067;-86
2022/04/19 08:31:16;;;;;;;12.43;5.53;;;14.50;75.90;;;;;;10254901;28;20043;-85
2022/04/19 08:36:21;;;;;;;11.55;5.47;;;14.70;75.30;;;;;;10289820;28;20045;-87
2022/04/19 08:41:27;;;;;;;10.02;4.80;;;15.00;74.20;;;;;;10317858;28;20046;-86
2022/04/19 08:46:29;;;;;;;9.52;4.60;;;15.20;73.30;;;;;;10279589;28;20050;-86
2022/04/19 08:51:34;;;;;;;12.35;5.13;;;15.40;72.90;;;;;;10267203;28;20614;-86
2022/04/19 09:01:59;;;;;;;10.70;4.68;;;15.80;71.70;;;;;;10300146;28;20042;-86
2022/04/19 09:07:04;;;;;;;8.75;4.07;;;16.10;71.10;;;;;;10318282;28;20134;-87
2022/04/19 09:12:07;;;;;;;8.82;4.75;;;16.30;70.40;;;;;;10296775;28;20035;-86
2022/04/19 09:17:10;;;;;;;7.90;4.18;;;16.60;69.90;;;;;;10292210;28;20031;-86
2022/04/19 09:22:25;;;;;;;13.18;4.32;;;17.00;69.20;;;;;;10293391;28;20043;-86
2022/04/19 09:27:33;;;;;;;7.78;4.10;;;17.30;69.00;;;;;;10319115;28;20038;-86
2022/04/19 09:32:35;;;;;;;7.65;3.78;;;17.70;67.90;;;;;;10318476;28;20045;-87
2022/04/19 09:37:36;;;;;;;8.00;3.60;;;18.10;67.30;;;;;;10299887;28;20880;-86
2022/04/19 09:42:36;;;;;;;6.97;3.83;;;18.40;66.80;;;;;;10279393;28;20134;-87
2022/04/19 09:47:50;;;;;;;6.18;3.90;;;19.00;66.30;;;;;;10298569;28;20054;-86
2022/04/19 09:52:51;;;;;;;9.93;5.13;;;19.10;65.10;;;;;;10317931;28;20027;-86
2022/04/19 09:57:53;;;;;;;8.35;4.65;;;19.30;64.70;;;;;;10266120;28;20043;-86
2022/04/19 10:08:19;;;;;;;6.20;3.58;;;19.90;63.50;;;;;;10317325;28;20097;-87
2022/04/19 10:13:23;;;;;;;4.72;2.95;;;20.30;62.80;;;;;;10300542;28;20405;-87
2022/04/19 10:18:24;;;;;;;4.30;2.95;;;20.60;62.10;;;;;;10297085;28;20708;-87
2022/04/19 10:23:38;;;;;;;4.20;2.53;;;21.00;61.30;;;;;;10297786;28;20042;-87
2022/04/19 10:28:39;;;;;;;7.60;2.65;;;21.30;60.60;;;;;;10299839;28;20386;-87
2022/04/19 10:33:39;;;;;;;3.55;2.50;;;21.70;60.30;;;;;;10270994;28;20038;-87
2022/04/19 10:38:41;;;;;;;3.30;2.22;;;21.80;59.40;;;;;;10271799;28;20038;-87
2022/04/19 10:44:22;;;;;;;3.22;2.00;;;22.20;59.00;;;;;;10255569;28;20101;-87
2022/04/19 10:49:25;;;;;;;2.92;1.73;;;22.50;56.50;;;;;;10256485;28;20038;-88
2022/04/19 10:55:04;;;;;;;1.95;1.27;;;22.80;56.90;;;;;;10257062;28;20031;-88
2022/04/19 11:00:34;;;;;;;2.10;1.60;;;23.10;55.70;;;;;;10271412;28;20110;-87
2022/04/19 11:05:44;;;;;;;6.47;1.80;;;23.60;54.40;;;;;;10254937;28;20043;-87
2022/04/19 11:10:45;;;;;;;2.70;1.95;;;23.90;54.50;;;;;;10257732;28;20611;-88
2022/04/19 11:16:08;;;;;;;2.97;2.10;;;24.40;53.90;;;;;;10242448;28;20043;-87
2022/04/19 11:21:11;;;;;;;3.47;2.28;;;24.80;51.50;;;;;;10241736;28;20050;-87
2022/04/19 11:26:44;;;;;;;2.42;1.63;;;24.70;51.30;;;;;;10257894;28;20046;-88
2022/04/19 11:31:44;;;;;;;2.92;1.45;;;24.80;50.70;;;;;;10286278;28;20051;-90
2022/04/19 11:37:00;;;;;;;3.53;2.00;;;25.30;51.00;;;;;;10297399;28;20097;-88
2022/04/19 11:47:24;;;;;;;2.33;1.35;;;26.00;49.40;;;;;;10301278;28;20043;-88
2022/04/19 11:52:26;;;;;;;2.63;1.75;;;26.20;48.60;;;;;;10259296;28;20038;-89
2022/04/19 11:57:28;;;;;;;3.10;1.73;;;26.20;48.00;;;;;;10273404;28;20058;-87
2022/04/19 12:02:29;;;;;;;2.30;1.75;;;26.00;48.20;;;;;;10322199;28;20046;-85
2022/04/19 12:07:30;;;;;;;4.03;2.08;;;26.00;47.50;;;;;;10272768;28;20579;-88
2022/04/19 12:12:31;;;;;;;2.17;1.50;;;26.00;47.90;;;;;;10295133;28;20085;-86
2022/04/19 12:17:32;;;;;;;3.30;1.35;;;26.20;47.60;;;;;;10291449;28;20092;-86
2022/04/19 12:22:34;;;;;;;3.75;1.20;;;26.20;47.50;;;;;;10290157;28;20038;-86
2022/04/19 12:27:37;;;;;;;2.13;1.27;;;26.20;47.30;;;;;;10282660;28;20057;-87
2022/04/19 12:32:51;;;;;;;4.97;1.60;;;26.20;47.30;;;;;;10271421;28;20031;-87
2022/04/19 12:38:10;;;;;;;2.20;1.30;;;26.40;46.40;;;;;;10298854;28;20213;-87
2022/04/19 12:43:14;;;;;;;3.58;1.10;;;26.40;45.70;;;;;;10323091;28;20066;-87
2022/04/19 12:48:23;;;;;;;2.83;1.30;;;26.60;46.40;;;;;;10300227;28;20138;-87
2022/04/19 12:53:25;;;;;;;1.75;1.27;;;26.70;46.30;;;;;;10301609;28;20045;-87
2022/04/19 12:58:46;;;;;;;5.25;1.40;;;26.90;46.90;;;;;;10286658;28;20108;-87
2022/04/19 13:03:51;;;;;;;3.97;1.27;;;27.20;45.80;;;;;;10288331;28;20042;-87
2022/04/19 13:14:13;;;;;;;2.05;1.40;;;27.30;46.00;;;;;;10306506;28;20038;-87
2022/04/19 13:19:14;;;;;;;2.10;1.50;;;27.40;45.50;;;;;;10300852;28;20508;-88
2022/04/19 13:24:15;;;;;;;3.60;1.83;;;27.10;44.70;;;;;;10277842;28;20050;-87
2022/04/19 13:29:16;;;;;;;2.80;1.70;;;27.00;45.20;;;;;;10286122;28;20146;-88
2022/04/19 13:34:18;;;;;;;3.47;1.52;;;27.10;45.10;;;;;;10292440;28;20687;-87
2022/04/19 13:39:18;;;;;;;3.13;1.63;;;27.10;45.00;;;;;;10267191;28;20135;-87
2022/04/19 13:44:20;;;;;;;3.92;1.60;;;27.30;44.80;;;;;;10284492;28;20130;-87
2022/04/19 13:49:20;;;;;;;2.78;1.58;;;27.30;44.60;;;;;;10252256;28;20555;-87
2022/04/19 13:54:21;;;;;;;2.90;1.40;;;27.10;44.40;;;;;;10270210;28;20133;-87
2022/04/19 13:59:22;;;;;;;3.38;1.65;;;26.90;44.40;;;;;;10316744;28;20408;-87
2022/04/19 14:04:23;;;;;;;1.52;1.35;;;26.80;44.70;;;;;;10291331;28;20075;-87
2022/04/19 14:09:28;;;;;;;3.75;1.60;;;26.80;44.00;;;;;;10295487;28;20031;-89
2022/04/19 14:14:29;;;;;;;1.80;1.33;;;26.80;44.20;;;;;;10298512;28;20046;-87
2022/04/19 14:19:30;;;;;;;4.28;1.50;;;26.60;44.20;;;;;;10282313;28;20133;-87
2022/04/19 14:24:31;;;;;;;2.50;1.83;;;26.20;44.20;;;;;;10287865;28;20489;-87
2022/04/19 14:34:51;;;;;;;2.15;1.55;;;25.70;44.20;;;;;;10272992;28;20043;-86
2022/04/19 14:39:57;;;;;;;3.08;2.20;;;25.50;44.40;;;;;;10254953;28;20054;-87
2022/04/19 14:44:58;;;;;;;2.65;2.17;;;25.20;44.40;;;;;;10243726;28;20047;-84
2022/04/19 14:49:59;;;;;;;3.78;2.20;;;24.60;44.90;;;;;;10231625;28;20541;-86
2022/04/19 14:55:00;;;;;;;3.13;1.90;;;24.00;45.50;;;;;;10229447;28;20055;-85
2022/04/19 15:00:01;;;;;;;5.25;2.25;;;23.60;45.80;;;;;;10266259;28;20031;-85
2022/04/19 15:05:04;;;;;;;4.45;2.15;;;23.10;46.40;;;;;;10233461;28;20058;-86
2022/04/19 15:10:06;;;;;;;3.35;2.20;;;22.70;46.70;;;;;;10252154;28;20049;-86
2022/04/19 15:15:13;;;;;;;3.85;1.85;;;22.10;46.90;;;;;;10258803;28;20050;-86
2022/04/19 15:20:19;;;;;;;3.45;1.77;;;21.80;47.30;;;;;;10269489;28;20059;-86
2022/04/19 15:25:26;;;;;;;3.80;2.05;;;21.30;47.50;;;;;;10257150;28;20390;-86
2022/04/19 15:30:27;;;;;;;3.47;1.70;;;21.00;47.90;;;;;;10281141;28;20556;-85
2022/04/19 15:35:28;;;;;;;1.98;1.70;;;20.80;48.00;;;;;;10281208;28;20545;-85
2022/04/19 15:40:29;;;;;;;3.58;1.98;;;20.50;49.00;;;;;;10278617;28;20034;-85
2022/04/19 15:45:44;;;;;;;2.97;2.25;;;20.30;48.60;;;;;;10294388;28;20057;-86
2022/04/19 15:50:45;;;;;;;3.83;2.35;;;20.20;48.80;;;;;;10258711;28;20034;-85
2022/04/19 15:55:46;;;;;;;3.80;2.10;;;20.00;49.00;;;;;;10301821;28;20091;-85
2022/04/19 16:00:47;;;;;;;4.22;2.03;;;19.90;49.20;;;;;;10307229;28;20050;-84
2022/04/19 16:05:48;;;;;;;11.27;2.17;;;19.80;49.30;;;;;;10270363;28;20053;-85
2022/04/19 16:10:49;;;;;;;3.65;2.25;;;19.60;49.50;;;;;;10280735;28;20090;-86
2022/04/19 16:15:49;;;;;;;2.45;1.80;;;19.50;50.00;;;;;;10265822;28;20055;-86
2022/04/19 16:26:28;;;;;;;4.10;2.17;;;19.10;50.30;;;;;;10307082;28;20429;-86
2022/04/19 16:31:34;;;;;;;3.05;1.83;;;19.00;50.40;;;;;;10270877;28;20114;-85
2022/04/19 16:36:35;;;;;;;3.88;1.75;;;18.90;50.50;;;;;;10280864;28;20671;-86
2022/04/19 16:41:36;;;;;;;4.40;2.45;;;18.80;50.50;;;;;;10321505;28;20034;-86
2022/04/19 16:46:37;;;;;;;4.72;1.95;;;18.70;50.60;;;;;;10278082;28;20140;-86
2022/04/19 16:51:37;;;;;;;6.97;2.20;;;18.60;50.90;;;;;;10299352;28;20137;-86
2022/04/19 16:56:38;;;;;;;3.10;2.08;;;18.50;51.10;;;;;;10280933;28;20038;-86
2022/04/19 17:01:39;;;;;;;4.07;2.40;;;18.50;51.20;;;;;;10295180;28;20034;-85
2022/04/19 17:06:39;;;;;;;4.07;2.08;;;18.30;51.50;;;;;;10293915;28;20531;-86
2022/04/19 17:11:45;;;;;;;5.10;2.40;;;18.20;51.60;;;;;;10286333;28;20047;-86
2022/04/19 17:16:46;;;;;;;4.88;2.50;;;18.10;51.80;;;;;;10316379;28;20065;-86
2022/04/19 17:21:47;;;;;;;4.88;2.42;;;18.00;51.90;;;;;;10298536;28;20044;-86
2022/04/19 17:26:49;;;;;;;5.28;3.00;;;17.90;52.10;;;;;;10276009;28;20397;-86
2022/04/19 17:31:50;;;;;;;5.25;3.10;;;17.80;52.30;;;;;;10289136;28;20074;-86
2022/04/19 17:36:51;;;;;;;4.25;2.63;;;17.70;52.40;;;;;;10291361;28;20043;-86
2022/04/19 17:41:53;;;;;;;5.07;2.88;;;17.60;52.70;;;;;;10283658;28;20077;-86
2022/04/19 17:46:54;;;;;;;5.30;3.28;;;17.50;53.60;;;;;;10285636;28;20105;-85
2022/04/19 17:57:14;;;;;;;4.95;2.88;;;17.20;53.60;;;;;;10312066;28;20030;-86
2022/04/19 18:02:15;;;;;;;6.88;2.85;;;17.10;53.90;;;;;;10277150;28;20414;-85
2022/04/19 18:07:16;;;;;;;6.72;2.78;;;16.90;54.00;;;;;;10287449;28;20070;-85
2022/04/19 18:12:18;;;;;;;5.00;3.10;;;16.80;54.20;;;;;;10283834;28;20105;-85
2022/04/19 18:17:21;;;;;;;5.15;3.05;;;16.70;54.50;;;;;;10272595;28;20057;-85
2022/04/19 18:27:43;;;;;;;5.35;3.00;;;16.40;55.10;;;;;;10300813;28;20812;-85
2022/04/19 18:32:48;;;;;;;8.95;2.90;;;16.30;55.60;;;;;;10297079;28;20470;-84
2022/04/19 18:37:49;;;;;;;5.57;3.13;;;16.10;56.00;;;;;;10291760;28;20030;-84
2022/04/19 18:42:50;;;;;;;5.65;3.35;;;16.00;56.40;;;;;;10308079;28;20798;-84
2022/04/19 18:47:52;;;;;;;5.03;3.10;;;15.80;56.70;;;;;;10263595;28;20046;-85
2022/04/19 18:53:07;;;;;;;6.18;3.80;;;15.70;57.20;;;;;;10275976;28;20504;-86
2022/04/19 18:58:10;;;;;;;7.35;3.60;;;15.60;57.50;;;;;;10271349;28;20044;-86
2022/04/19 19:03:15;;;;;;;8.57;4.35;;;15.40;57.90;;;;;;10289762;28;20038;-85
2022/04/19 19:08:15;;;;;;;10.60;5.38;;;15.20;58.20;;;;;;10284101;28;20023;-85
2022/04/19 19:13:19;;;;;;;11.82;6.43;;;15.10;58.90;;;;;;10285468;28;20034;-85
2022/04/19 19:18:20;;;;;;;12.73;6.28;;;14.90;59.60;;;;;;10276220;28;20465;-85
2022/04/19 19:23:21;;;;;;;14.30;7.22;;;14.80;60.70;;;;;;10275960;28;20149;-85
2022/04/19 19:28:22;;;;;;;14.60;6.70;;;14.70;60.50;;;;;;10266480;28;20047;-85
2022/04/19 19:33:26;;;;;;;11.73;5.93;;;14.50;60.90;;;;;;10280319;28;20057;-85
2022/04/19 19:38:28;;;;;;;15.88;7.20;;;14.40;61.20;;;;;;10310102;28;20046;-85
2022/04/19 19:43:28;;;;;;;12.25;6.63;;;14.30;61.60;;;;;;10305694;28;20061;-84
2022/04/19 19:48:29;;;;;;;12.38;6.35;;;14.10;61.70;;;;;;10291524;28;20467;-85
2022/04/19 19:53:30;;;;;;;13.88;6.93;;;14.00;62.10;;;;;;10293019;28;20075;-86
2022/04/19 19:58:31;;;;;;;12.60;5.47;;;13.90;62.50;;;;;;10268101;28;20069;-85
2022/04/19 20:03:32;;;;;;;12.43;5.65;;;13.70;62.60;;;;;;10256845;28;20038;-86
2022/04/19 20:08:33;;;;;;;13.60;6.47;;;13.60;63.00;;;;;;10293119;28;20809;-86
2022/04/19 20:13:33;;;;;;;14.73;6.00;;;13.50;63.50;;;;;;10307119;28;20042;-85
2022/04/19 20:18:34;;;;;;;11.95;5.55;;;13.40;63.80;;;;;;10312456;28;20050;-85
2022/04/19 20:23:36;;;;;;;14.18;6.18;;;13.30;64.30;;;;;;10295556;28;20624;-85
2022/04/19 20:28:37;;;;;;;13.43;6.18;;;13.10;64.60;;;;;;10291320;28;20050;-84
2022/04/19 20:33:38;;;;;;;9.68;5.25;;;13.00;64.90;;;;;;10302884;28;20093;-86
2022/04/19 20:38:39;;;;;;;11.73;5.78;;;12.90;65.30;;;;;;10286709;28;20540;-85
2022/04/19 20:43:40;;;;;;;10.48;5.43;;;12.80;65.50;;;;;;10294088;28;20055;-84
2022/04/19 20:54:01;;;;;;;10.73;5.90;;;12.50;66.10;;;;;;10317567;28;20050;-85
2022/04/19 20:59:02;;;;;;;10.23;5.30;;;12.40;66.40;;;;;;10293238;28;20500;-85
2022/04/19 21:04:03;;;;;;;10.48;5.70;;;12.40;66.70;;;;;;10286458;28;20046;-85
2022/04/19 21:09:04;;;;;;;11.07;5.05;;;12.20;66.90;;;;;;10270154;28;20058;-85
2022/04/19 21:14:04;;;;;;;9.43;4.93;;;12.10;67.20;;;;;;10284978;28;20137;-86
2022/04/19 21:19:05;;;;;;;10.05;4.70;;;12.00;67.50;;;;;;10280136;28;20057;-86
2022/04/19 21:24:06;;;;;;;12.23;4.72;;;11.90;67.80;;;;;;10282873;28;20042;-86
2022/04/19 21:29:07;;;;;;;9.82;5.05;;;11.80;67.90;;;;;;10297535;28;20049;-86
2022/04/19 21:34:09;;;;;;;12.80;4.93;;;11.70;68.20;;;;;;10293820;28;20042;-85
2022/04/19 21:39:10;;;;;;;11.20;5.18;;;11.60;68.40;;;;;;10312038;28;20035;-85
2022/04/19 21:44:11;;;;;;;9.23;4.80;;;11.50;68.60;;;;;;10280930;28;20055;-86
2022/04/19 21:49:12;;;;;;;7.65;4.18;;;11.50;68.90;;;;;;10297627;28;20030;-86
2022/04/19 21:54:12;;;;;;;8.27;4.93;;;11.40;69.10;;;;;;10315555;28;20050;-86
2022/04/19 21:59:13;;;;;;;8.77;4.40;;;11.50;69.50;;;;;;10309745;28;20073;-85
2022/04/19 22:04:14;;;;;;;8.27;4.65;;;11.50;70.30;;;;;;10294701;28;20045;-86
2022/04/19 22:09:15;;;;;;;8.10;4.80;;;11.10;69.60;;;;;;10282615;28;20043;-85
2022/04/19 22:14:15;;;;;;;9.43;4.57;;;11.40;70.20;;;;;;10293092;28;20129;-86
2022/04/19 22:19:16;;;;;;;10.20;4.78;;;10.90;70.10;;;;;;10276965;28;20037;-85
2022/04/19 22:24:17;;;;;;;7.45;4.47;;;10.90;70.30;;;;;;10287204;28;20080;-85
2022/04/19 22:29:17;;;;;;;8.45;4.55;;;10.80;70.70;;;;;;10298934;28;20050;-86
2022/04/19 22:34:20;;;;;;;10.93;4.70;;;10.70;70.70;;;;;;10296804;28;20132;-86
2022/04/19 22:39:27;;;;;;;9.60;4.70;;;10.70;71.00;;;;;;10282405;28;20047;-86
2022/04/19 22:44:40;;;;;;;8.45;4.13;;;10.50;71.30;;;;;;10293897;28;20549;-86
2022/04/19 22:49:43;;;;;;;10.10;4.50;;;10.50;71.40;;;;;;10301340;28;20077;-86
2022/04/19 22:54:47;;;;;;;7.93;4.63;;;11.00;71.90;;;;;;10318139;28;20038;-85
2022/04/19 22:59:51;;;;;;;8.63;3.85;;;10.30;71.70;;;;;;10292634;28;20057;-85
2022/04/19 23:04:55;;;;;;;7.43;3.90;;;10.40;72.00;;;;;;10261510;28;20553;-85
2022/04/19 23:09:56;;;;;;;7.50;3.92;;;10.30;72.20;;;;;;10300275;28;20022;-86
2022/04/19 23:14:57;;;;;;;6.88;4.18;;;10.10;72.10;;;;;;10278983;28;20465;-85
2022/04/19 23:19:58;;;;;;;6.97;3.88;;;9.90;72.20;;;;;;10252853;28;20509;-85
2022/04/19 23:24:59;;;;;;;5.90;3.97;;;9.90;72.40;;;;;;10290631;28;20168;-85
2022/04/19 23:30:15;;;;;;;8.60;3.45;;;10.20;72.80;;;;;;10309775;28;20042;-85
2022/04/19 23:35:16;;;;;;;7.97;3.60;;;9.80;72.70;;;;;;10289865;28;20558;-85
2022/04/19 23:40:17;;;;;;;5.43;3.20;;;9.70;72.70;;;;;;10265564;28;20031;-86
2022/04/19 23:45:18;;;;;;;6.03;3.22;;;9.60;72.80;;;;;;10264334;28;20042;-85
2022/04/19 23:50:44;;;;;;;7.47;3.10;;;9.50;72.80;;;;;;10280675;28;20106;-86
2022/04/19 23:55:45;;;;;;;4.53;3.08;;;9.40;72.90;;;;;;10299094;28;20042;-86
